Check out our new BloomSky Weather System.

Active alerts

Houston, TX
  Details for Houston, TX Heat Advisory  +1 additional alert
Galveston, TX
  Details for Galveston, TX Heat Advisory  +1 additional alert
Fort Bend, TX
  Details for Fort Bend, TX Heat Advisory


Thunder radar  blitzortung!


Rain radar more information rain snow radar


Visit our other weather sites:

Template documentation
and downloads

And another site



Weather Underground History page Text

Daily Summary for October 31, 2017 Units:  English    Metric   Both
« Previous Day
Next Day »
Daily Weekly Monthly Yearly Custom
  High: Low: Average:
Temperature: TemperatureF °F 59.9 °F 66.9 °F
Dew Point: DewpointF °F 58.8 °F 64.4 °F
Humidity: Humidity % 70 % 92 %
Wind Speed: WindSpeedMPH mph 0.0 mph 0.8 mph
Wind Gust: WindSpeedGustMPH mph - -
Wind:- - SSE
Pressure: PressureIn in 29.93 in -
Precipitation: 1.68 in    
Historical Graphs
 
 
Tabular Data for October 31, 2017
Time Temperature Dew Point Pressure Wind Wind Speed Wind Gust Humidity Rainfall Rate (Hourly)
TemperatureF °F DewpointF °F PressureIn in Calm     Humidity % HourlyPrecipIn in
00:03 63.0 °F 59.9 °F 30.03 in Calm   1.0 mph 90 % 0.00 in
00:08 63.0 °F 60.3 °F 30.02 in Calm     91 % 0.00 in
00:13 63.1 °F 60.4 °F 30.02 in Calm     91 % 0.00 in
00:18 63.1 °F 60.4 °F 30.03 in Calm     91 % 0.00 in
00:23 63.1 °F 60.4 °F 30.03 in Calm     91 % 0.00 in
00:28 63.3 °F 60.6 °F 30.03 in Calm     91 % 0.00 in
00:33 63.3 °F 60.6 °F 30.03 in Calm     91 % 0.00 in
00:38 63.1 °F 60.4 °F 30.03 in Calm     91 % 0.00 in
00:43 63.1 °F 60.4 °F 30.03 in Calm     91 % 0.00 in
00:48 63.1 °F 60.4 °F 30.03 in Calm     91 % 0.00 in
00:53 63.1 °F 60.4 °F 30.03 in Calm     91 % 0.00 in
00:58 63.0 °F 60.3 °F 30.03 in Calm     91 % 0.00 in
01:03 63.0 °F 60.6 °F 30.03 in Calm     92 % 0.00 in
01:08 63.0 °F 60.6 °F 30.03 in Calm     92 % 0.00 in
01:13 62.8 °F 60.4 °F 30.03 in Calm     92 % 0.00 in
01:18 62.8 °F 60.4 °F 30.03 in Calm   1.0 mph 92 % 0.00 in
01:23 62.4 °F 60.1 °F 30.03 in Calm   1.0 mph 92 % 0.00 in
01:28 62.4 °F 60.1 °F 30.03 in Calm   1.0 mph 92 % 0.00 in
01:33 62.2 °F 59.9 °F 30.03 in Calm   1.0 mph 92 % 0.00 in
01:38 62.1 °F 59.7 °F 30.02 in Calm     92 % 0.00 in
01:43 61.9 °F 59.9 °F 30.03 in Calm     93 % 0.00 in
01:48 61.9 °F 59.9 °F 30.03 in Calm     93 % 0.00 in
01:53 61.5 °F 59.5 °F 30.02 in Calm     93 % 0.00 in
01:58 61.3 °F 59.4 °F 30.02 in Calm     93 % 0.00 in
02:03 61.2 °F 59.4 °F 30.03 in Calm     94 % 0.00 in
02:08 61.2 °F 59.4 °F 30.03 in Calm     94 % 0.00 in
02:13 61.0 °F 59.2 °F 30.03 in Calm     94 % 0.00 in
02:18 60.8 °F 59.0 °F 30.03 in Calm     94 % 0.00 in
02:23 60.8 °F 59.4 °F 30.02 in Calm     95 % 0.00 in
02:28 61.0 °F 59.5 °F 30.02 in Calm     95 % 0.00 in
02:33 61.0 °F 59.5 °F 30.02 in Calm     95 % 0.00 in
02:38 61.0 °F 59.5 °F 30.02 in Calm     95 % 0.00 in
02:43 61.0 °F 59.5 °F 30.02 in Calm     95 % 0.00 in
02:47 61.0 °F 59.5 °F 30.02 in Calm     95 % 0.00 in
02:53 61.2 °F 60.1 °F 30.02 in Calm   1.0 mph 96 % 0.00 in
02:58 61.2 °F 60.1 °F 30.02 in Calm   1.0 mph 96 % 0.00 in
03:03 61.2 °F 60.1 °F 30.02 in Calm   1.0 mph 96 % 0.00 in
03:08 61.3 °F 60.3 °F 30.02 in Calm     96 % 0.00 in
03:13 61.3 °F 60.3 °F 30.01 in Calm     96 % 0.00 in
03:18 61.3 °F 60.3 °F 30.01 in Calm   1.0 mph 96 % 0.00 in
03:23 61.2 °F 60.1 °F 30.01 in Calm   1.0 mph 96 % 0.00 in
03:28 61.0 °F 59.9 °F 30.01 in Calm   1.0 mph 96 % 0.00 in
03:33 61.0 °F 59.9 °F 30.01 in Calm     96 % 0.00 in
03:38 61.0 °F 59.9 °F 30.01 in Calm     96 % 0.00 in
03:43 60.6 °F 59.5 °F 30.01 in Calm   1.0 mph 96 % 0.00 in
03:48 60.6 °F 59.5 °F 30.01 in Calm   1.0 mph 96 % 0.00 in
03:53 60.4 °F 59.4 °F 30.01 in Calm   1.0 mph 96 % 0.00 in
03:58 60.4 °F 59.4 °F 30.01 in Calm     96 % 0.00 in
04:03 60.4 °F 59.5 °F 30.01 in Calm     97 % 0.00 in
04:08 60.4 °F 59.5 °F 30.01 in Calm     97 % 0.00 in
04:13 60.3 °F 59.2 °F 30.01 in Calm     96 % 0.00 in
04:18 60.1 °F 59.0 °F 30.01 in Calm     96 % 0.00 in
04:23 59.9 °F 58.8 °F 30.01 in Calm     96 % 0.00 in
04:28 59.9 °F 59.0 °F 30.01 in Calm     97 % 0.00 in
04:33 60.1 °F 59.2 °F 30.01 in Calm     97 % 0.00 in
04:38 59.9 °F 59.0 °F 30.02 in Calm     97 % 0.00 in
04:43 60.1 °F 59.2 °F 30.02 in Calm   1.0 mph 97 % 0.00 in
04:48 60.1 °F 59.2 °F 30.02 in Calm   1.0 mph 97 % 0.00 in
04:53 60.3 °F 59.4 °F 30.02 in Calm   1.0 mph 97 % 0.00 in
04:58 60.4 °F 59.5 °F 30.02 in Calm   1.0 mph 97 % 0.00 in
05:03 60.4 °F 59.5 °F 30.02 in Calm   1.0 mph 97 % 0.00 in
05:08 60.6 °F 59.7 °F 30.02 in Calm   1.0 mph 97 % 0.00 in
05:13 60.6 °F 59.7 °F 30.02 in Calm   1.0 mph 97 % 0.00 in
05:18 60.6 °F 59.7 °F 30.02 in Calm   1.0 mph 97 % 0.00 in
05:23 60.4 °F 59.5 °F 30.02 in Calm   1.0 mph 97 % 0.00 in
05:28 60.4 °F 59.5 °F 30.02 in Calm   1.0 mph 97 % 0.00 in
05:33 60.4 °F 59.5 °F 30.02 in Calm   1.0 mph 97 % 0.00 in
05:38 60.4 °F 59.5 °F 30.02 in Calm   1.0 mph 97 % 0.00 in
05:43 60.6 °F 59.7 °F 30.02 in Calm   1.0 mph 97 % 0.00 in
05:48 61.0 °F 60.4 °F 30.02 in Calm   1.0 mph 98 % 0.00 in
05:53 61.2 °F 60.6 °F 30.02 in Calm   1.0 mph 98 % 0.00 in
05:58 61.3 °F 60.8 °F 30.03 in Calm   1.0 mph 98 % 0.00 in
06:03 61.5 °F 60.6 °F 30.03 in Calm   1.0 mph 97 % 0.00 in
06:08 61.5 °F 60.6 °F 30.03 in ENE 1.0 mph 3.0 mph 97 % 0.00 in
06:13 61.9 °F 61.0 °F 30.03 in Calm   3.0 mph 97 % 0.00 in
06:18 62.2 °F 61.7 °F 30.02 in ENE 1.0 mph 3.0 mph 98 % 0.00 in
06:23 62.8 °F 62.2 °F 30.03 in Calm   2.0 mph 98 % 0.00 in
06:28 62.8 °F 61.9 °F 30.03 in Calm   2.0 mph 97 % 0.00 in
06:33 63.0 °F 62.1 °F 30.03 in Calm   2.0 mph 97 % 0.00 in
06:38 63.0 °F 62.1 °F 30.03 in Calm   2.0 mph 97 % 0.00 in
06:43 63.1 °F 62.2 °F 30.03 in Calm   1.0 mph 97 % 0.00 in
06:48 63.3 °F 62.4 °F 30.03 in Calm   1.0 mph 97 % 0.00 in
06:53 63.3 °F 62.4 °F 30.03 in Calm   1.0 mph 97 % 0.00 in
06:58 63.3 °F 62.4 °F 30.03 in Calm   1.0 mph 97 % 0.00 in
07:03 63.3 °F 62.4 °F 30.03 in Calm   1.0 mph 97 % 0.00 in
07:08 63.3 °F 62.2 °F 30.03 in Calm   1.0 mph 96 % 0.00 in
07:13 63.3 °F 62.2 °F 30.03 in Calm   1.0 mph 96 % 0.00 in
07:18 63.1 °F 62.1 °F 30.03 in Calm   1.0 mph 96 % 0.00 in
07:23 63.3 °F 62.4 °F 30.03 in Calm     97 % 0.00 in
07:28 63.5 °F 62.6 °F 30.03 in Calm   1.0 mph 97 % 0.00 in
07:33 63.7 °F 62.8 °F 30.03 in Calm   2.0 mph 97 % 0.00 in
07:38 63.9 °F 63.0 °F 30.04 in NNW 3.0 mph 3.0 mph 97 % 0.00 in
07:43 63.7 °F 62.6 °F 30.04 in NW 1.0 mph 4.0 mph 96 % 0.00 in
07:48 63.1 °F 62.1 °F 30.04 in Calm   4.0 mph 96 % 0.00 in
07:53 63.0 °F 61.9 °F 30.04 in NW 3.0 mph 4.0 mph 96 % 0.00 in
07:58 62.8 °F 61.9 °F 30.04 in Calm   4.0 mph 97 % 0.00 in
08:03 62.6 °F 61.7 °F 30.04 in NNW 1.0 mph 4.0 mph 97 % 0.00 in
08:08 62.6 °F 61.7 °F 30.05 in NW 2.0 mph 4.0 mph 97 % 0.00 in
08:13 62.4 °F 61.5 °F 30.05 in NNW 1.0 mph 3.0 mph 97 % 0.00 in
08:18 62.6 °F 61.7 °F 30.05 in Calm   3.0 mph 97 % 0.00 in
08:23 62.6 °F 61.7 °F 30.05 in Calm   3.0 mph 97 % 0.00 in
08:28 62.8 °F 61.9 °F 30.06 in Calm   3.0 mph 97 % 0.00 in
08:33 63.0 °F 62.1 °F 30.06 in NW 3.0 mph 3.0 mph 97 % 0.00 in
08:38 63.1 °F 62.2 °F 30.06 in NNW 3.0 mph 3.0 mph 97 % 0.00 in
08:43 63.3 °F 62.4 °F 30.06 in NNW 1.0 mph 5.0 mph 97 % 0.00 in
08:48 63.7 °F 62.8 °F 30.06 in Calm   5.0 mph 97 % 0.00 in
08:53 63.7 °F 62.6 °F 30.06 in NW 2.0 mph 5.0 mph 96 % 0.00 in
08:58 63.9 °F 62.8 °F 30.06 in NW 2.0 mph 5.0 mph 96 % 0.00 in
09:03 64.2 °F 63.3 °F 30.06 in NW 1.0 mph 4.0 mph 97 % 0.00 in
09:08 64.8 °F 63.9 °F 30.06 in NW 1.0 mph 4.0 mph 97 % 0.00 in
09:13 65.5 °F 64.2 °F 30.06 in NNE 1.0 mph 4.0 mph 96 % 0.00 in
09:18 65.8 °F 64.4 °F 30.06 in NNW 3.0 mph 4.0 mph 95 % 0.00 in
09:23 65.8 °F 64.0 °F 30.06 in NW 1.0 mph 4.0 mph 94 % 0.00 in
09:28 65.8 °F 64.0 °F 30.06 in North 1.0 mph 4.0 mph 94 % 0.00 in
09:33 66.4 °F 64.6 °F 30.06 in North 3.0 mph 4.0 mph 94 % 0.00 in
09:38 67.3 °F 65.5 °F 30.06 in ENE 1.0 mph 4.0 mph 94 % 0.00 in
09:43 68.0 °F 65.7 °F 30.07 in NW 1.0 mph 4.0 mph 92 % 0.00 in
09:48 68.2 °F 65.5 °F 30.07 in NNW 1.0 mph 4.0 mph 91 % 0.00 in
09:53 68.4 °F 65.7 °F 30.07 in WNW 1.0 mph 4.0 mph 91 % 0.00 in
09:58 68.5 °F 65.5 °F 30.07 in NE 1.0 mph 5.0 mph 90 % 0.00 in
10:03 69.3 °F 66.2 °F 30.07 in Calm   5.0 mph 90 % 0.00 in
10:08 69.8 °F 66.0 °F 30.08 in NNW 1.0 mph 5.0 mph 88 % 0.00 in
10:13 70.2 °F 66.4 °F 30.08 in Calm   5.0 mph 88 % 0.00 in
10:18 71.1 °F 66.9 °F 30.08 in ENE 1.0 mph 5.0 mph 87 % 0.00 in
10:23 71.2 °F 66.9 °F 30.07 in ENE 1.0 mph 5.0 mph 86 % 0.00 in
10:28 71.1 °F 66.7 °F 30.07 in Calm   4.0 mph 86 % 0.00 in
10:33 71.1 °F 66.9 °F 30.07 in NNW 1.0 mph 4.0 mph 87 % 0.00 in
10:38 71.1 °F 66.9 °F 30.07 in Calm   4.0 mph 87 % 0.00 in
10:43 71.2 °F 67.1 °F 30.07 in North 1.0 mph 4.0 mph 87 % 0.00 in
10:48 72.0 °F 67.5 °F 30.07 in NW 2.0 mph 4.0 mph 86 % 0.00 in
10:53 72.3 °F 67.6 °F 30.07 in NW 1.0 mph 4.0 mph 85 % 0.00 in
10:58 73.2 °F 68.4 °F 30.07 in NW 1.0 mph 5.0 mph 85 % 0.00 in
11:03 73.6 °F 67.8 °F 30.07 in NE 1.0 mph 5.0 mph 82 % 0.00 in
11:08 73.8 °F 68.0 °F 30.07 in NNW 3.0 mph 5.0 mph 82 % 0.00 in
11:13 73.8 °F 68.4 °F 30.07 in East 2.0 mph 5.0 mph 83 % 0.00 in
11:18 73.9 °F 68.2 °F 30.07 in NW 2.0 mph 5.0 mph 82 % 0.00 in
11:23 74.7 °F 69.1 °F 30.06 in ENE 1.0 mph 5.0 mph 83 % 0.00 in
11:28 75.6 °F 68.5 °F 30.06 in East 2.0 mph 5.0 mph 79 % 0.00 in
11:33 75.6 °F 68.5 °F 30.06 in NNW 2.0 mph 4.0 mph 79 % 0.00 in
11:38 75.6 °F 68.9 °F 30.06 in ESE 5.0 mph 5.0 mph 80 % 0.00 in
11:43 76.1 °F 69.8 °F 30.06 in ENE 2.0 mph 5.0 mph 81 % 0.00 in
11:48 76.3 °F 68.9 °F 30.06 in ESE 3.0 mph 5.0 mph 78 % 0.00 in
11:53 76.8 °F 69.4 °F 30.05 in SE 1.0 mph 5.0 mph 78 % 0.00 in
11:58 77.2 °F 69.4 °F 30.05 in NE 3.0 mph 5.0 mph 77 % 0.00 in
12:03 77.4 °F 70.0 °F 30.05 in NE 4.0 mph 5.0 mph 78 % 0.00 in
12:08 77.2 °F 69.8 °F 30.05 in Calm   8.0 mph 78 % 0.00 in
12:13 77.4 °F 69.6 °F 30.05 in SE 1.0 mph 8.0 mph 77 % 0.00 in
12:18 78.1 °F 70.0 °F 30.04 in East 2.0 mph 8.0 mph 76 % 0.00 in
12:23 78.1 °F 70.0 °F 30.04 in SE 2.0 mph 6.0 mph 76 % 0.00 in
12:28 78.1 °F 69.4 °F 30.04 in SE 2.0 mph 6.0 mph 75 % 0.00 in
12:33 77.5 °F 69.4 °F 30.04 in SSE 1.0 mph 6.0 mph 76 % 0.00 in
12:38 77.7 °F 69.1 °F 30.03 in East 3.0 mph 9.0 mph 75 % 0.00 in
12:43 78.4 °F 69.4 °F 30.03 in WNW 1.0 mph 9.0 mph 74 % 0.00 in
12:48 79.0 °F 69.3 °F 30.03 in ESE 5.0 mph 9.0 mph 72 % 0.00 in
12:53 78.4 °F 68.7 °F 30.02 in NNE 3.0 mph 7.0 mph 72 % 0.00 in
12:58 78.1 °F 67.8 °F 30.02 in East 1.0 mph 7.0 mph 71 % 0.00 in
13:03 77.9 °F 68.2 °F 30.01 in Calm   7.0 mph 72 % 0.00 in
13:08 78.1 °F 68.4 °F 30.01 in Calm   7.0 mph 72 % 0.00 in
13:13 78.1 °F 68.4 °F 30.01 in ESE 3.0 mph 7.0 mph 72 % 0.00 in
13:18 77.9 °F 68.5 °F 30.00 in NNE 2.0 mph 6.0 mph 73 % 0.00 in
13:23 78.4 °F 69.1 °F 30.00 in North 2.0 mph 7.0 mph 73 % 0.00 in
13:28 79.0 °F 68.4 °F 30.00 in SE 2.0 mph 7.0 mph 70 % 0.00 in
13:33 78.6 °F 68.4 °F 29.99 in ENE 6.0 mph 7.0 mph 71 % 0.00 in
13:38 78.8 °F 68.2 °F 29.99 in NE 1.0 mph 6.0 mph 70 % 0.00 in
13:43 78.6 °F 68.4 °F 29.99 in Calm   6.0 mph 71 % 0.00 in
13:48 78.4 °F 68.7 °F 29.99 in East 3.0 mph 6.0 mph 72 % 0.00 in
13:53 77.9 °F 67.8 °F 29.98 in SE 1.0 mph 6.0 mph 71 % 0.00 in
13:58 77.4 °F 67.3 °F 29.98 in Calm   5.0 mph 71 % 0.00 in
14:03 77.0 °F 67.3 °F 29.98 in Calm   7.0 mph 72 % 0.00 in
14:08 76.8 °F 67.1 °F 29.98 in Calm   8.0 mph 72 % 0.00 in
14:13 76.6 °F 67.6 °F 29.97 in Calm   8.0 mph 74 % 0.00 in
14:18 76.3 °F 67.8 °F 29.97 in Calm   8.0 mph 75 % 0.00 in
14:23 75.7 °F 68.0 °F 29.97 in Calm   5.0 mph 77 % 0.01 in
14:28 74.7 °F 67.6 °F 29.96 in Calm   4.0 mph 79 % 0.03 in
14:33 73.8 °F 67.6 °F 29.96 in SE 3.0 mph 3.0 mph 81 % 0.05 in
14:38 72.9 °F 67.1 °F 29.97 in ESE 3.0 mph 5.0 mph 82 % 0.05 in
14:43 72.7 °F 67.3 °F 29.96 in SE 2.0 mph 7.0 mph 83 % 0.06 in
14:48 72.1 °F 67.1 °F 29.96 in SSE 3.0 mph 7.0 mph 84 % 0.11 in
14:53 71.8 °F 67.1 °F 29.96 in ESE 4.0 mph 7.0 mph 85 % 0.13 in
14:58 71.1 °F 66.7 °F 29.96 in SSE 2.0 mph 9.0 mph 86 % 0.14 in
15:03 70.9 °F 66.7 °F 29.96 in SE 1.0 mph 9.0 mph 87 % 0.19 in
15:08 70.5 °F 67.1 °F 29.96 in ESE 2.0 mph 9.0 mph 89 % 0.21 in
15:13 70.3 °F 66.9 °F 29.96 in ESE 1.0 mph 8.0 mph 89 % 0.22 in
15:19 70.2 °F 67.1 °F 29.96 in Calm   8.0 mph 90 % 0.28 in
15:24 70.0 °F 66.9 °F 29.95 in East 4.0 mph 6.0 mph 90 % 0.29 in
15:29 69.8 °F 67.1 °F 29.96 in SSE 2.0 mph 5.0 mph 91 % 0.27 in
15:34 69.8 °F 66.7 °F 29.96 in ESE 5.0 mph 5.0 mph 90 % 0.25 in
15:39 69.4 °F 66.4 °F 29.95 in ENE 3.0 mph 7.0 mph 90 % 0.27 in
15:44 69.3 °F 66.6 °F 29.96 in SE 2.0 mph 7.0 mph 91 % 0.33 in
15:49 69.1 °F 66.7 °F 29.96 in Calm   7.0 mph 92 % 0.29 in
15:54 68.9 °F 66.6 °F 29.97 in Calm   6.0 mph 92 % 0.33 in
15:59 68.9 °F 66.7 °F 29.97 in NNW 2.0 mph 4.0 mph 93 % 0.35 in
16:04 68.7 °F 66.6 °F 29.96 in ENE 1.0 mph 4.0 mph 93 % 0.36 in
16:09 68.5 °F 66.7 °F 29.96 in East 1.0 mph 4.0 mph 94 % 0.38 in
16:14 68.4 °F 66.6 °F 29.96 in SSE 1.0 mph 5.0 mph 94 % 0.42 in
16:19 68.4 °F 66.9 °F 29.96 in ESE 1.0 mph 5.0 mph 95 % 0.38 in
16:24 68.4 °F 66.9 °F 29.96 in ENE 1.0 mph 5.0 mph 95 % 0.36 in
16:29 68.5 °F 67.1 °F 29.95 in South 2.0 mph 4.0 mph 95 % 0.37 in
16:34 68.5 °F 67.1 °F 29.96 in SE 1.0 mph 6.0 mph 95 % 0.37 in
16:39 68.5 °F 67.1 °F 29.95 in SE 2.0 mph 6.0 mph 95 % 0.35 in
16:44 68.5 °F 67.1 °F 29.95 in SSE 1.0 mph 6.0 mph 95 % 0.28 in
16:49 68.7 °F 67.3 °F 29.95 in East 1.0 mph 6.0 mph 95 % 0.25 in
16:54 68.7 °F 67.3 °F 29.95 in East 3.0 mph 5.0 mph 95 % 0.21 in
16:59 68.7 °F 67.3 °F 29.94 in East 2.0 mph 4.0 mph 95 % 0.18 in
17:04 68.5 °F 67.1 °F 29.94 in Calm   4.0 mph 95 % 0.12 in
17:09 68.5 °F 67.1 °F 29.94 in Calm   4.0 mph 95 % 0.07 in
17:14 68.5 °F 67.1 °F 29.94 in Calm   4.0 mph 95 % 0.03 in
17:19 68.5 °F 67.1 °F 29.94 in Calm   4.0 mph 95 % 0.02 in
17:24 68.5 °F 67.3 °F 29.94 in NE 1.0 mph 4.0 mph 96 % 0.02 in
17:29 68.5 °F 67.3 °F 29.94 in Calm   4.0 mph 96 % 0.01 in
17:34 68.5 °F 67.3 °F 29.94 in Calm   4.0 mph 96 % 0.01 in
17:39 68.5 °F 67.3 °F 29.94 in Calm   1.0 mph 96 % 0.02 in
17:44 68.5 °F 67.3 °F 29.95 in NNW 1.0 mph 1.0 mph 96 % 0.03 in
17:49 68.5 °F 67.3 °F 29.95 in Calm   1.0 mph 96 % 0.03 in
17:54 68.5 °F 67.3 °F 29.95 in Calm   2.0 mph 96 % 0.03 in
17:59 68.5 °F 67.3 °F 29.95 in Calm   2.0 mph 96 % 0.03 in
18:04 68.5 °F 67.3 °F 29.95 in Calm   2.0 mph 96 % 0.04 in
18:09 68.4 °F 67.5 °F 29.95 in Calm   1.0 mph 97 % 0.06 in
18:14 68.4 °F 67.5 °F 29.94 in Calm   1.0 mph 97 % 0.08 in
18:24 68.4 °F 67.5 °F 29.94 in ENE 1.0 mph 1.0 mph 97 % 0.09 in
18:29 68.4 °F 67.5 °F 29.94 in Calm   1.0 mph 97 % 0.09 in
18:34 68.2 °F 67.3 °F 29.95 in Calm   1.0 mph 97 % 0.10 in
18:39 68.2 °F 67.3 °F 29.95 in Calm   1.0 mph 97 % 0.11 in
18:44 68.2 °F 67.3 °F 29.94 in SSE 5.0 mph 5.0 mph 97 % 0.14 in
18:49 68.2 °F 67.3 °F 29.94 in SE 3.0 mph 7.0 mph 97 % 0.21 in
18:54 68.2 °F 67.3 °F 29.94 in ESE 3.0 mph 7.0 mph 97 % 0.25 in
18:59 68.2 °F 67.3 °F 29.93 in SE 1.0 mph 7.0 mph 97 % 0.27 in
19:04 68.2 °F 67.3 °F 29.93 in Calm   6.0 mph 97 % 0.28 in
19:09 68.0 °F 67.1 °F 29.93 in East 2.0 mph 5.0 mph 97 % 0.27 in
19:14 67.8 °F 66.9 °F 29.94 in SE 1.0 mph 5.0 mph 97 % 0.25 in
19:19 67.8 °F 66.9 °F 29.94 in SSE 1.0 mph 5.0 mph 97 % 0.26 in
19:24 67.8 °F 66.9 °F 29.95 in NNW 1.0 mph 5.0 mph 97 % 0.24 in
19:29 67.8 °F 66.9 °F 29.95 in Calm   5.0 mph 97 % 0.24 in
19:34 67.8 °F 66.9 °F 29.95 in Calm   2.0 mph 97 % 0.25 in
19:39 67.8 °F 67.3 °F 29.96 in Calm   2.0 mph 98 % 0.28 in
19:44 67.8 °F 66.9 °F 29.95 in NW 1.0 mph 2.0 mph 97 % 0.31 in
19:49 67.6 °F 67.1 °F 29.96 in SE 2.0 mph 4.0 mph 98 % 0.33 in
19:54 67.6 °F 67.1 °F 29.96 in Calm   4.0 mph 98 % 0.30 in
19:59 67.6 °F 67.1 °F 29.96 in Calm   4.0 mph 98 % 0.30 in
20:04 67.6 °F 67.1 °F 29.96 in Calm   5.0 mph 98 % 0.28 in
20:09 67.6 °F 67.1 °F 29.96 in Calm   5.0 mph 98 % 0.28 in
20:14 67.6 °F 67.1 °F 29.97 in Calm   5.0 mph 98 % 0.29 in
20:19 67.6 °F 67.1 °F 29.97 in Calm   2.0 mph 98 % 0.30 in
20:24 67.6 °F 67.1 °F 29.97 in SSE 2.0 mph 2.0 mph 98 % 0.37 in
20:29 67.5 °F 66.9 °F 29.97 in Calm   2.0 mph 98 % 0.43 in
20:34 67.1 °F 66.2 °F 29.97 in Calm   3.0 mph 97 % 0.47 in
20:39 66.7 °F 65.8 °F 29.98 in Calm   3.0 mph 97 % 0.44 in
20:44 66.6 °F 65.7 °F 29.97 in Calm   5.0 mph 97 % 0.40 in
20:49 66.4 °F 65.8 °F 29.98 in Calm   5.0 mph 98 % 0.34 in
20:54 66.4 °F 65.8 °F 29.97 in Calm   5.0 mph 98 % 0.34 in
20:59 66.4 °F 65.8 °F 29.97 in Calm   3.0 mph 98 % 0.32 in
21:04 66.4 °F 65.8 °F 29.97 in Calm     98 % 0.31 in
21:09 66.6 °F 66.0 °F 29.97 in Calm   1.0 mph 98 % 0.32 in
21:14 66.6 °F 66.0 °F 29.96 in Calm   1.0 mph 98 % 0.31 in
21:19 66.6 °F 66.0 °F 29.97 in NNE 1.0 mph 1.0 mph 98 % 0.29 in
21:24 66.6 °F 66.0 °F 29.96 in NNE 1.0 mph 1.0 mph 98 % 0.22 in
21:29 66.6 °F 66.0 °F 29.96 in Calm   1.0 mph 98 % 0.16 in
21:34 66.7 °F 66.2 °F 29.96 in Calm   1.0 mph 98 % 0.10 in
21:39 66.7 °F 66.2 °F 29.96 in Calm   1.0 mph 98 % 0.07 in
21:44 66.7 °F 66.4 °F 29.96 in North 1.0 mph 1.0 mph 99 % 0.04 in
21:49 66.7 °F 66.4 °F 29.96 in Calm   1.0 mph 99 % 0.02 in
21:54 66.9 °F 66.6 °F 29.96 in Calm   1.0 mph 99 % 0.01 in
21:59 66.9 °F 66.6 °F 29.96 in Calm   1.0 mph 99 % 0.01 in
22:04 66.9 °F 66.6 °F 29.96 in Calm   1.0 mph 99 % 0.01 in
22:09 66.9 °F 66.6 °F 29.96 in East 1.0 mph 1.0 mph 99 % 0.00 in
22:14 66.9 °F 66.6 °F 29.96 in Calm   2.0 mph 99 % 0.00 in
22:21 66.9 °F 66.6 °F 29.96 in Calm   2.0 mph 99 % 0.03 in
22:22 66.9 °F 66.6 °F 29.96 in East 1.0 mph 2.0 mph 99 % 0.03 in
22:23 66.9 °F 66.6 °F 29.97 in East 1.0 mph 2.0 mph 99 % 0.03 in
22:24 66.9 °F 66.6 °F 29.97 in East 1.0 mph 2.0 mph 99 % 0.03 in
22:26 66.9 °F 66.6 °F 29.96 in Calm   3.0 mph 99 % 0.04 in
22:29 66.9 °F 66.6 °F 29.96 in WNW 1.0 mph 3.0 mph 99 % 0.04 in
22:31 66.7 °F 66.4 °F 29.96 in North 2.0 mph 3.0 mph 99 % 0.04 in
22:36 66.7 °F 66.4 °F 29.96 in Calm   3.0 mph 99 % 0.07 in
22:41 66.7 °F 66.4 °F 29.97 in NNW 1.0 mph 2.0 mph 99 % 0.07 in
22:46 66.7 °F 66.4 °F 29.97 in Calm   3.0 mph 99 % 0.07 in
22:56 66.7 °F 66.4 °F 29.96 in Calm   3.0 mph 99 % 0.07 in
23:01 66.7 °F 66.4 °F 29.96 in ENE 1.0 mph 2.0 mph 99 % 0.07 in
23:06 66.7 °F 66.4 °F 29.96 in Calm   2.0 mph 99 % 0.07 in
23:11 66.7 °F 66.4 °F 29.96 in NE 2.0 mph 2.0 mph 99 % 0.07 in
23:16 66.7 °F 66.4 °F 29.96 in Calm   4.0 mph 99 % 0.07 in
23:21 66.7 °F 66.4 °F 29.95 in ESE 1.0 mph 4.0 mph 99 % 0.04 in
23:26 66.6 °F 66.2 °F 29.94 in Calm   5.0 mph 99 % 0.04 in
23:27 66.6 °F 66.2 °F 29.94 in ENE 1.0 mph 5.0 mph 99 % 0.04 in
23:32 66.6 °F 66.2 °F 29.94 in Calm   5.0 mph 99 % 0.04 in
23:37 66.6 °F 66.2 °F 29.94 in Calm   5.0 mph 99 % 0.01 in
23:39 66.6 °F 66.2 °F 29.94 in ENE 1.0 mph 5.0 mph 99 % 0.01 in
23:44 66.6 °F 66.2 °F 29.93 in Calm   4.0 mph 99 % 0.01 in
23:49 66.6 °F 66.2 °F 29.93 in Calm   4.0 mph 99 % 0.01 in
23:54 66.6 °F 66.2 °F 29.93 in East 2.0 mph 4.0 mph 99 % 0.01 in
23:55 66.6 °F 66.2 °F 29.93 in East 1.0 mph 5.0 mph 99 % 0.01 in
Spring, Texas: Villages of Bridgestone
Compliments of Weather Underground - 3 mb

Script developed by  Jim McMurry - jmcmurry@mwt.net Adapted for the template by  Wim van der Kuil - Leuven-Template.eu

You find our weather info also at:

UK Metoffice

WeatherCloud

Weather Underground

Mid-South Weather Network

AWEKAS

Citizen Weather Observer Program (CWOP)

HAMweather, WeatherForYou, PWS Weather

Equipment we use:

Weather-station
Davis Vantage Vue

Weather-program
Meteohub

Weather-server
Debian 7.9 x86 (Guest)

Provider
DreamHost

Davis Vantage Vue

Meteohub

Debian 7.9 x86 (Guest)

DreamHost